createdAt,value
2022-08-27T00:01:04.439Z,20.00
2022-08-27T00:04:15.473Z,19.98
2022-08-27T00:07:21.766Z,19.95
2022-08-27T00:10:29.326Z,19.99
2022-08-27T00:13:36.572Z,20.00
2022-08-27T00:16:42.043Z,20.04
2022-08-27T00:19:47.709Z,20.04
2022-08-27T00:22:53.191Z,20.03
2022-08-27T00:25:58.621Z,20.04
2022-08-27T00:29:06.490Z,20.06
2022-08-27T00:32:13.696Z,20.08
2022-08-27T00:35:19.748Z,20.10
2022-08-27T00:38:25.783Z,20.11
2022-08-27T00:41:31.300Z,20.12
2022-08-27T00:44:38.890Z,20.17
2022-08-27T00:47:50.241Z,20.14
2022-08-27T00:50:56.350Z,20.17
2022-08-27T00:54:02.561Z,20.18
2022-08-27T00:57:08.660Z,20.19
2022-08-27T01:00:20.341Z,20.17
2022-08-27T01:03:26.560Z,20.18
2022-08-27T01:06:36.485Z,20.18
2022-08-27T01:09:44.233Z,20.17
2022-08-27T01:12:53.222Z,20.17
2022-08-27T01:16:01.124Z,20.14
2022-08-27T01:19:10.800Z,20.12
2022-08-27T01:22:27.337Z,20.12
2022-08-27T01:25:34.202Z,20.10
2022-08-27T01:28:40.853Z,20.14
2022-08-27T01:31:46.627Z,20.12
2022-08-27T01:34:52.622Z,20.14
2022-08-27T01:37:57.916Z,20.16
2022-08-27T01:41:04.831Z,20.16
2022-08-27T01:44:13.035Z,20.16
2022-08-27T01:47:21.822Z,20.17
2022-08-27T01:50:30.346Z,20.16
2022-08-27T01:53:36.123Z,20.16
2022-08-27T01:56:42.751Z,20.20
2022-08-27T01:59:49.328Z,20.23
2022-08-27T02:02:54.735Z,20.26
2022-08-27T02:06:00.751Z,20.27
2022-08-27T02:09:06.343Z,20.31
2022-08-27T02:12:15.296Z,20.32
2022-08-27T02:15:21.638Z,20.32
2022-08-27T02:18:27.419Z,20.33
2022-08-27T02:21:32.831Z,20.31
2022-08-27T02:24:38.543Z,20.32
2022-08-27T02:27:45.774Z,20.33
2022-08-27T02:30:51.182Z,20.35
2022-08-27T02:33:57.143Z,20.37
2022-08-27T02:37:02.788Z,20.36
2022-08-27T02:40:11.209Z,20.38
2022-08-27T02:43:24.998Z,20.42
2022-08-27T02:46:31.304Z,20.41
2022-08-27T02:49:36.887Z,20.40
2022-08-27T02:52:43.198Z,20.44
2022-08-27T02:55:52.195Z,20.47
2022-08-27T02:58:59.323Z,20.43
2022-08-27T03:02:05.608Z,20.44
2022-08-27T03:05:14.190Z,20.39
2022-08-27T03:08:19.712Z,20.42
2022-08-27T03:11:25.691Z,20.43
2022-08-27T03:14:32.841Z,20.49
2022-08-27T03:17:55.788Z,20.49
2022-08-27T03:21:02.606Z,20.50
2022-08-27T03:24:14.583Z,20.50
2022-08-27T03:27:20.261Z,20.52
2022-08-27T03:30:27.567Z,20.50
2022-08-27T03:33:36.490Z,20.53
2022-08-27T03:36:41.971Z,20.53
2022-08-27T03:39:47.438Z,20.55
2022-08-27T03:42:52.786Z,20.55
2022-08-27T03:46:01.863Z,20.55
2022-08-27T03:49:07.633Z,20.56
2022-08-27T03:52:14.691Z,20.56
2022-08-27T03:55:20.054Z,20.55
2022-08-27T03:58:25.446Z,20.54
2022-08-27T04:01:32.186Z,20.54
2022-08-27T04:04:38.159Z,20.56
2022-08-27T04:07:45.902Z,20.58
2022-08-27T04:10:51.897Z,20.58
2022-08-27T04:13:57.294Z,20.57
2022-08-27T04:17:04.685Z,20.56
2022-08-27T04:20:34.184Z,20.58
2022-08-27T04:23:37.425Z,20.57
2022-08-27T04:26:45.736Z,20.58
2022-08-27T04:29:51.331Z,20.64
2022-08-27T04:32:59.545Z,20.66
2022-08-27T04:36:10.069Z,20.66
2022-08-27T04:39:16.138Z,20.65
2022-08-27T04:42:21.943Z,20.67
2022-08-27T04:45:27.187Z,20.69
2022-08-27T04:48:34.363Z,20.71
2022-08-27T04:51:44.431Z,20.73
2022-08-27T04:54:51.619Z,20.74
2022-08-27T04:57:56.902Z,20.78
2022-08-27T05:01:02.169Z,20.80
2022-08-27T05:04:09.593Z,20.86
2022-08-27T05:07:15.086Z,20.89
2022-08-27T05:10:20.787Z,20.90
2022-08-27T05:13:26.039Z,20.95
2022-08-27T05:16:31.728Z,20.96
2022-08-27T05:19:39.081Z,21.02
2022-08-27T05:22:44.542Z,21.07
2022-08-27T05:25:54.065Z,21.14
2022-08-27T05:29:00.719Z,21.19
2022-08-27T05:32:06.618Z,21.20
2022-08-27T05:35:15.680Z,21.26
2022-08-27T05:38:22.223Z,21.28
2022-08-27T05:41:34.245Z,21.28
2022-08-27T05:44:41.545Z,21.28
2022-08-27T05:47:47.161Z,21.32
2022-08-27T05:50:53.870Z,21.31
2022-08-27T05:54:04.535Z,21.36
2022-08-27T05:57:12.757Z,21.30
2022-08-27T06:00:35.919Z,21.36
2022-08-27T06:03:41.798Z,21.42
2022-08-27T06:06:49.599Z,21.44
2022-08-27T06:09:55.135Z,21.50
2022-08-27T06:13:00.482Z,21.59
2022-08-27T06:16:08.644Z,21.61
2022-08-27T06:19:14.463Z,21.63
2022-08-27T06:22:21.555Z,21.69
2022-08-27T06:25:26.781Z,21.68
2022-08-27T06:28:32.492Z,21.83
2022-08-27T06:31:38.715Z,21.95
2022-08-27T06:34:46.048Z,22.08
2022-08-27T06:37:53.067Z,22.15
2022-08-27T06:40:58.722Z,22.26
2022-08-27T06:44:04.881Z,22.28
2022-08-27T06:47:12.116Z,22.23
2022-08-27T06:50:20.753Z,22.38
2022-08-27T06:53:29.186Z,22.38
2022-08-27T06:56:35.649Z,22.47
2022-08-27T06:59:41.432Z,22.35
2022-08-27T07:02:46.762Z,22.30
2022-08-27T07:05:52.197Z,22.28
2022-08-27T07:08:59.222Z,22.28
2022-08-27T07:12:06.141Z,22.30
2022-08-27T07:15:13.925Z,22.29
2022-08-27T07:18:19.802Z,22.24
2022-08-27T07:21:34.067Z,22.16
2022-08-27T07:24:41.135Z,22.22
2022-08-27T07:27:46.974Z,22.24
2022-08-27T07:30:52.880Z,22.25
2022-08-27T07:34:17.158Z,22.21
2022-08-27T07:37:23.109Z,22.24
2022-08-27T07:40:32.794Z,22.30
2022-08-27T07:43:56.398Z,22.33
2022-08-27T07:47:02.734Z,22.35
2022-08-27T07:50:09.292Z,22.41
2022-08-27T07:53:17.309Z,22.53
2022-08-27T07:56:24.725Z,22.61
2022-08-27T07:59:30.119Z,22.65
2022-08-27T08:02:35.731Z,22.52
2022-08-27T08:05:44.191Z,22.53
2022-08-27T08:08:49.908Z,22.58
2022-08-27T08:11:57.109Z,22.50
2022-08-27T08:15:02.947Z,22.56
2022-08-27T08:18:08.325Z,22.71
2022-08-27T08:21:15.272Z,22.71
2022-08-27T08:24:21.339Z,22.60
2022-08-27T08:27:28.781Z,22.58
2022-08-27T08:30:35.329Z,22.60
2022-08-27T08:33:40.914Z,22.61
2022-08-27T08:36:49.035Z,22.61
2022-08-27T08:39:59.713Z,22.60
2022-08-27T08:43:08.074Z,22.69
2022-08-27T08:46:22.039Z,22.60
2022-08-27T08:49:37.090Z,22.63
2022-08-27T08:52:51.702Z,22.55
2022-08-27T08:55:59.150Z,22.61
2022-08-27T08:59:10.597Z,22.71
2022-08-27T09:02:18.217Z,22.79
2022-08-27T09:05:27.361Z,22.86
2022-08-27T09:08:41.148Z,22.81
2022-08-27T09:11:59.239Z,22.83
2022-08-27T09:15:13.590Z,22.96
2022-08-27T09:18:19.147Z,23.06
2022-08-27T09:21:34.466Z,23.16
2022-08-27T09:24:52.655Z,23.19
2022-08-27T09:28:01.458Z,23.24
2022-08-27T09:31:10.554Z,23.31
2022-08-27T09:34:17.316Z,23.38
2022-08-27T09:37:34.174Z,23.43
2022-08-27T09:40:45.437Z,23.36
2022-08-27T09:43:59.999Z,23.44
2022-08-27T09:47:06.895Z,23.49
2022-08-27T09:50:19.874Z,23.71
2022-08-27T09:53:28.571Z,23.88
2022-08-27T09:56:36.606Z,23.94
2022-08-27T09:59:51.589Z,23.92
2022-08-27T10:03:03.756Z,24.08
2022-08-27T10:06:10.173Z,24.17
2022-08-27T10:09:21.080Z,24.22
2022-08-27T10:12:32.407Z,24.09
2022-08-27T10:15:44.813Z,24.00
2022-08-27T10:19:01.443Z,24.01
2022-08-27T10:22:15.406Z,24.13
2022-08-27T10:25:34.023Z,24.32
2022-08-27T10:28:57.356Z,24.57
2022-08-27T10:32:13.093Z,24.68
2022-08-27T10:35:26.434Z,24.68
2022-08-27T10:38:43.893Z,24.65
2022-08-27T10:41:55.757Z,24.61
2022-08-27T10:45:30.505Z,24.69
2022-08-27T10:48:41.358Z,24.74
2022-08-27T10:51:53.438Z,24.72
2022-08-27T10:55:07.023Z,24.71
2022-08-27T10:58:39.610Z,24.78
2022-08-27T11:01:50.754Z,24.86
2022-08-27T11:05:00.905Z,24.98
2022-08-27T11:08:13.053Z,25.14
2022-08-27T11:15:03.814Z,25.29
2022-08-27T11:18:20.463Z,25.35
2022-08-27T11:21:34.843Z,25.41
2022-08-27T11:24:48.467Z,25.51
2022-08-27T11:27:55.394Z,25.70
2022-08-27T11:31:06.005Z,25.66
2022-08-27T11:34:18.583Z,25.89
2022-08-27T11:37:45.383Z,25.96
2022-08-27T11:41:16.510Z,25.76
2022-08-27T11:44:24.821Z,25.80
2022-08-27T11:47:30.682Z,26.01
2022-08-27T11:50:36.142Z,26.15
2022-08-27T11:53:52.518Z,26.19
2022-08-27T11:57:00.378Z,26.25
2022-08-27T12:00:20.134Z,26.23
2022-08-27T12:03:31.863Z,26.23
2022-08-27T12:06:44.438Z,26.23
2022-08-27T12:10:09.795Z,26.27
2022-08-27T12:13:24.295Z,26.34
2022-08-27T12:16:38.050Z,26.20
2022-08-27T12:19:54.207Z,26.17
2022-08-27T12:23:30.162Z,26.12
2022-08-27T12:26:38.223Z,26.19
2022-08-27T12:29:52.313Z,26.20
2022-08-27T12:32:59.716Z,26.32
2022-08-27T12:36:11.696Z,26.30
2022-08-27T12:39:19.832Z,26.30
2022-08-27T12:42:25.136Z,26.30
2022-08-27T12:45:32.038Z,26.32
2022-08-27T12:48:41.889Z,26.33
2022-08-27T12:51:47.627Z,26.16
2022-08-27T12:55:05.623Z,26.32
2022-08-27T12:58:19.060Z,26.54
2022-08-27T13:01:43.484Z,26.57
2022-08-27T13:04:49.309Z,26.69
2022-08-27T13:07:57.031Z,26.81
2022-08-27T13:11:12.702Z,26.93
2022-08-27T13:14:22.274Z,26.78
2022-08-27T13:17:29.309Z,26.88
2022-08-27T13:20:40.310Z,26.92
2022-08-27T13:23:47.035Z,26.89
2022-08-27T13:26:54.821Z,26.84
2022-08-27T13:30:03.003Z,26.59
2022-08-27T13:33:14.262Z,26.66
2022-08-27T13:36:29.510Z,26.59
2022-08-27T13:39:39.197Z,26.54
2022-08-27T13:42:45.342Z,26.55
2022-08-27T13:45:54.477Z,26.49
2022-08-27T13:49:02.122Z,26.44
2022-08-27T13:52:21.507Z,26.29
2022-08-27T13:55:26.294Z,26.31
2022-08-27T13:58:34.492Z,26.39
2022-08-27T14:01:43.574Z,26.48
2022-08-27T14:04:53.186Z,26.50
2022-08-27T14:08:02.110Z,26.33
2022-08-27T14:11:11.033Z,26.44
2022-08-27T14:14:18.394Z,26.31
2022-08-27T14:17:29.760Z,26.46
2022-08-27T14:20:37.712Z,26.57
2022-08-27T14:23:43.053Z,26.52
2022-08-27T14:26:51.260Z,26.56
2022-08-27T14:29:56.546Z,26.60
2022-08-27T14:33:03.502Z,26.54
2022-08-27T14:36:11.107Z,26.54
2022-08-27T14:39:16.742Z,26.61
2022-08-27T14:42:21.965Z,26.62
2022-08-27T14:45:29.123Z,26.59
2022-08-27T14:48:35.692Z,26.66
2022-08-27T14:51:45.872Z,26.62
2022-08-27T14:54:51.234Z,26.63
2022-08-27T14:57:56.462Z,26.60
2022-08-27T15:01:01.910Z,26.64
2022-08-27T15:04:08.270Z,26.66
2022-08-27T15:07:15.198Z,26.69
2022-08-27T15:10:20.830Z,26.66
2022-08-27T15:13:26.329Z,26.63
2022-08-27T15:16:34.230Z,26.68
2022-08-27T15:19:39.704Z,26.64
2022-08-27T15:22:47.940Z,26.61
2022-08-27T15:25:53.250Z,26.65
2022-08-27T15:29:04.129Z,26.63
2022-08-27T15:32:19.230Z,26.44
2022-08-27T15:35:29.108Z,26.48
2022-08-27T15:38:35.759Z,26.52
2022-08-27T15:42:05.219Z,26.52
2022-08-27T15:45:11.432Z,26.54
2022-08-27T15:48:16.693Z,26.46
2022-08-27T15:51:28.366Z,26.50
2022-08-27T15:54:35.627Z,26.49
2022-08-27T15:57:40.926Z,26.51
2022-08-27T16:00:48.582Z,26.50
2022-08-27T16:04:05.206Z,26.47
2022-08-27T16:07:12.943Z,26.47
2022-08-27T16:10:21.918Z,26.34
2022-08-27T16:13:27.311Z,26.32
2022-08-27T16:16:34.147Z,26.21
2022-08-27T16:19:40.184Z,26.25
2022-08-27T16:22:46.353Z,26.34
2022-08-27T16:25:53.265Z,26.20
2022-08-27T16:28:58.610Z,26.11
2022-08-27T16:32:04.809Z,26.07
2022-08-27T16:35:12.182Z,26.10
2022-08-27T16:38:17.980Z,26.09
2022-08-27T16:41:24.782Z,26.03
2022-08-27T16:44:31.528Z,25.93
2022-08-27T16:47:57.114Z,25.90
2022-08-27T16:51:01.830Z,25.79
2022-08-27T16:54:08.699Z,25.71
2022-08-27T16:57:16.409Z,25.72
2022-08-27T17:00:22.034Z,25.68
2022-08-27T17:03:27.499Z,25.56
2022-08-27T17:06:33.408Z,25.51
2022-08-27T17:09:40.518Z,25.38
2022-08-27T17:12:47.831Z,25.37
2022-08-27T17:15:53.305Z,25.38
2022-08-27T17:18:59.910Z,25.34
2022-08-27T17:22:05.735Z,25.31
2022-08-27T17:25:11.846Z,25.23
2022-08-27T17:28:19.731Z,25.20
2022-08-27T17:31:29.882Z,25.06
2022-08-27T17:34:35.952Z,24.98
2022-08-27T17:37:41.810Z,24.96
2022-08-27T17:40:47.355Z,24.86
2022-08-27T17:44:03.618Z,24.84
2022-08-27T17:47:10.107Z,24.78
2022-08-27T17:50:16.347Z,24.74
2022-08-27T17:53:21.672Z,24.64
2022-08-27T17:56:27.488Z,24.58
2022-08-27T17:59:34.235Z,24.51
2022-08-27T18:02:42.790Z,24.50
2022-08-27T18:05:48.956Z,24.43
2022-08-27T18:08:54.529Z,24.39
2022-08-27T18:12:00.097Z,24.33
2022-08-27T18:15:10.557Z,24.30
2022-08-27T18:18:20.250Z,24.26
2022-08-27T18:21:26.325Z,24.29
2022-08-27T18:24:31.986Z,24.21
2022-08-27T18:27:38.455Z,24.17
2022-08-27T18:30:46.816Z,24.15
2022-08-27T18:33:52.267Z,24.06
2022-08-27T18:36:58.290Z,24.09
2022-08-27T18:40:03.802Z,24.01
2022-08-27T18:43:09.440Z,24.05
2022-08-27T18:46:16.371Z,23.94
2022-08-27T18:49:25.746Z,23.97
2022-08-27T18:52:30.998Z,23.98
2022-08-27T18:55:36.346Z,23.81
2022-08-27T18:58:42.405Z,23.91
2022-08-27T19:01:49.446Z,23.72
2022-08-27T19:04:55.128Z,23.76
2022-08-27T19:08:00.661Z,23.79
2022-08-27T19:11:06.951Z,23.79
2022-08-27T19:14:12.869Z,23.81
2022-08-27T19:17:26.698Z,23.74
2022-08-27T19:20:32.507Z,23.70
2022-08-27T19:23:38.588Z,23.68
2022-08-27T19:26:44.482Z,23.69
2022-08-27T19:29:50.625Z,23.69
2022-08-27T19:32:57.721Z,23.73
2022-08-27T19:36:03.582Z,23.78
2022-08-27T19:39:11.265Z,23.87
2022-08-27T19:42:16.802Z,23.82
2022-08-27T19:45:24.250Z,23.89
2022-08-27T19:48:31.559Z,23.71
2022-08-27T19:51:37.065Z,23.59
2022-08-27T19:54:56.951Z,23.53
2022-08-27T19:58:08.056Z,23.48
2022-08-27T20:01:14.612Z,23.50
2022-08-27T20:04:21.963Z,23.59
2022-08-27T20:07:27.671Z,23.55
2022-08-27T20:10:36.559Z,23.33
2022-08-27T20:13:50.649Z,23.35
2022-08-27T20:16:56.330Z,23.27
2022-08-27T20:20:03.004Z,22.97
2022-08-27T20:23:09.266Z,23.08
2022-08-27T20:26:14.961Z,23.20
2022-08-27T20:29:32.507Z,23.37
2022-08-27T20:32:38.491Z,23.36
2022-08-27T20:35:45.348Z,23.19
2022-08-27T20:38:51.270Z,23.15
2022-08-27T20:41:56.949Z,23.13
2022-08-27T20:45:02.201Z,23.16
2022-08-27T20:48:08.079Z,23.08
2022-08-27T20:51:14.775Z,23.10
2022-08-27T20:54:20.109Z,23.09
2022-08-27T20:57:26.346Z,23.31
2022-08-27T21:00:32.022Z,23.46
2022-08-27T21:03:37.551Z,23.44
2022-08-27T21:06:44.610Z,23.33
2022-08-27T21:09:57.083Z,23.34
2022-08-27T21:13:05.221Z,23.23
2022-08-27T21:16:12.911Z,23.24
2022-08-27T21:19:18.671Z,23.09
2022-08-27T21:22:26.363Z,23.10
2022-08-27T21:25:32.159Z,23.11
2022-08-27T21:28:39.263Z,23.14
2022-08-27T21:31:45.100Z,23.08
2022-08-27T21:34:50.605Z,22.97
2022-08-27T21:37:58.989Z,23.01
2022-08-27T21:41:04.439Z,22.99
2022-08-27T21:44:10.146Z,23.07
2022-08-27T21:47:15.426Z,23.11
2022-08-27T21:50:21.718Z,23.01
2022-08-27T21:53:30.180Z,23.03
2022-08-27T21:56:35.690Z,23.08
2022-08-27T21:59:45.308Z,23.00
2022-08-27T22:02:50.874Z,22.91
2022-08-27T22:05:56.367Z,22.93
2022-08-27T22:09:03.164Z,22.80
2022-08-27T22:12:09.098Z,22.70
2022-08-27T22:15:14.383Z,22.62
2022-08-27T22:18:20.518Z,22.65
2022-08-27T22:21:29.442Z,22.70
2022-08-27T22:24:36.136Z,22.58
2022-08-27T22:27:41.495Z,22.47
2022-08-27T22:30:47.522Z,22.46
2022-08-27T22:33:53.569Z,22.38
2022-08-27T22:36:58.876Z,22.38
2022-08-27T22:40:08.251Z,22.09
2022-08-27T22:43:24.505Z,22.00
2022-08-27T22:46:30.182Z,21.91
2022-08-27T22:49:35.706Z,21.79
2022-08-27T22:52:43.187Z,21.76
2022-08-27T22:55:50.427Z,21.67
2022-08-27T22:58:56.224Z,21.65
2022-08-27T23:02:01.646Z,21.60
2022-08-27T23:05:09.574Z,21.66
2022-08-27T23:08:17.843Z,21.63
2022-08-27T23:11:24.865Z,21.54
2022-08-27T23:14:32.035Z,21.48
2022-08-27T23:17:37.590Z,21.51
2022-08-27T23:20:43.015Z,21.55
2022-08-27T23:23:48.869Z,21.51
2022-08-27T23:27:12.681Z,21.44
2022-08-27T23:30:18.362Z,21.36
2022-08-27T23:33:24.088Z,21.25
2022-08-27T23:36:30.242Z,21.19
2022-08-27T23:39:35.586Z,21.14
2022-08-27T23:42:43.486Z,21.11
2022-08-27T23:45:50.253Z,21.06
2022-08-27T23:48:56.376Z,21.14
2022-08-27T23:52:01.896Z,21.09
2022-08-27T23:55:09.181Z,20.97
2022-08-27T23:58:16.173Z,20.90
